Time;durP1;ratioP1;P1;durP2;ratioP2;P2;SDS_P1;SDS_P2;PMS_P1;PMS_P2;Temp;Humidity;BMP_temperature;BMP_pressure;BME280_temperature;BME280_humidity;BME280_pressure;Samples;Min_cycle;Max_cycle;Signal;HPM_P1;HPM_P2
2023/01/21 00:00:50;;;;;;;32.93;20.93;;;1.00;99.90;;;;;;5094523;28;20216;-54
2023/01/21 00:03:16;;;;;;;33.50;22.13;;;1.10;99.90;;;;;;5094448;28;20181;-54
2023/01/21 00:05:42;;;;;;;37.37;23.00;;;1.10;99.90;;;;;;5094722;28;20177;-54
2023/01/21 00:08:07;;;;;;;36.10;22.53;;;1.10;99.90;;;;;;5094678;28;20661;-53
2023/01/21 00:10:33;;;;;;;32.53;21.17;;;1.00;99.90;;;;;;5076503;28;20185;-54
2023/01/21 00:12:58;;;;;;;34.63;21.90;;;1.00;99.90;;;;;;5076363;28;20220;-53
2023/01/21 00:15:24;;;;;;;32.80;21.67;;;1.00;99.90;;;;;;5094459;28;20575;-54
2023/01/21 00:17:53;;;;;;;33.60;22.37;;;0.90;99.90;;;;;;5076272;28;20181;-54
2023/01/21 00:20:19;;;;;;;35.37;23.63;;;0.90;99.90;;;;;;5094439;28;20173;-54
2023/01/21 00:22:45;;;;;;;37.77;22.13;;;0.80;99.90;;;;;;5094280;28;20192;-53
2023/01/21 00:25:10;;;;;;;40.13;23.37;;;0.90;99.90;;;;;;5093949;28;20630;-53
2023/01/21 00:27:36;;;;;;;35.07;23.43;;;0.90;99.90;;;;;;5094041;28;20183;-53
2023/01/21 00:30:02;;;;;;;41.10;25.93;;;0.80;99.90;;;;;;5094065;28;20247;-54
2023/01/21 00:32:28;;;;;;;38.13;25.60;;;0.80;99.90;;;;;;5093900;28;20209;-52
2023/01/21 00:34:54;;;;;;;38.63;24.43;;;0.90;99.90;;;;;;5076094;28;20185;-54
2023/01/21 00:37:19;;;;;;;37.83;24.60;;;0.80;99.90;;;;;;5094237;28;20661;-54
2023/01/21 00:39:45;;;;;;;39.90;25.13;;;0.80;99.90;;;;;;5093830;28;20185;-54
2023/01/21 00:42:11;;;;;;;38.00;23.77;;;0.80;99.90;;;;;;5093948;28;20748;-54
2023/01/21 00:44:40;;;;;;;37.00;24.70;;;0.80;99.90;;;;;;5093693;28;20190;-53
2023/01/21 00:47:06;;;;;;;37.90;24.33;;;0.80;99.90;;;;;;5093709;28;20167;-55
2023/01/21 00:49:32;;;;;;;38.70;25.13;;;0.80;99.90;;;;;;5093846;28;20182;-54
2023/01/21 00:51:58;;;;;;;39.07;23.03;;;0.80;99.90;;;;;;5093707;28;20688;-54
2023/01/21 00:54:24;;;;;;;43.17;26.17;;;0.80;99.90;;;;;;5093756;28;20185;-54
2023/01/21 00:56:50;;;;;;;39.90;25.80;;;0.80;99.90;;;;;;5093668;28;20201;-52
2023/01/21 00:59:16;;;;;;;40.37;24.17;;;0.80;99.90;;;;;;5059076;28;20698;-51
2023/01/21 01:01:42;;;;;;;38.37;23.43;;;0.80;99.90;;;;;;5075327;28;20181;-54
2023/01/21 01:04:09;;;;;;;38.83;24.27;;;0.80;99.90;;;;;;5075613;28;20656;-54
2023/01/21 01:06:35;;;;;;;36.83;23.60;;;0.90;99.90;;;;;;5093533;28;20650;-52
2023/01/21 01:09:01;;;;;;;38.37;23.13;;;0.90;99.90;;;;;;5075606;28;20200;-54
2023/01/21 01:11:27;;;;;;;39.37;23.93;;;0.90;99.90;;;;;;5075395;28;20551;-53
2023/01/21 01:13:54;;;;;;;40.00;23.60;;;0.90;99.90;;;;;;5093885;28;20238;-54
2023/01/21 01:16:20;;;;;;;41.87;25.07;;;0.80;99.90;;;;;;5093239;28;20583;-53
2023/01/21 01:18:46;;;;;;;40.20;24.27;;;0.80;99.90;;;;;;5093542;28;20626;-55
2023/01/21 01:21:15;;;;;;;38.50;24.23;;;0.80;99.90;;;;;;5093435;28;20276;-55
2023/01/21 01:23:41;;;;;;;37.77;23.70;;;0.80;99.90;;;;;;5093268;28;20168;-53
2023/01/21 01:26:10;;;;;;;39.13;24.23;;;0.80;99.90;;;;;;5093318;28;20246;-53
2023/01/21 01:28:36;;;;;;;40.17;23.33;;;0.70;99.90;;;;;;5093185;28;20171;-55
2023/01/21 01:31:05;;;;;;;39.10;25.20;;;0.70;99.90;;;;;;5093088;28;20325;-53
2023/01/21 01:33:31;;;;;;;45.10;25.60;;;0.80;99.90;;;;;;5093099;28;20245;-54
2023/01/21 01:36:05;;;;;;;42.17;24.83;;;0.70;99.90;;;;;;5093379;28;20697;-54
2023/01/21 01:38:32;;;;;;;42.67;25.03;;;0.70;99.90;;;;;;5095314;28;20847;-51
2023/01/21 01:40:57;;;;;;;41.30;24.60;;;0.70;99.90;;;;;;5097343;28;20626;-53
2023/01/21 01:43:45;;;;;;;40.57;25.80;;;0.70;99.90;;;;;;5079004;28;20204;-55
2023/01/21 01:46:11;;;;;;;39.40;25.73;;;0.70;99.90;;;;;;5097232;28;20176;-56
2023/01/21 01:48:37;;;;;;;42.40;25.73;;;0.70;99.90;;;;;;5097547;28;20174;-54
2023/01/21 01:51:06;;;;;;;41.70;26.00;;;0.60;99.90;;;;;;5097066;28;20177;-54
2023/01/21 01:53:34;;;;;;;47.60;25.77;;;0.60;99.90;;;;;;5097128;28;20180;-54
2023/01/21 01:56:01;;;;;;;40.50;25.50;;;0.60;99.90;;;;;;5096914;28;20213;-53
2023/01/21 01:58:29;;;;;;;42.07;25.30;;;0.60;99.90;;;;;;5079115;28;20181;-53
2023/01/21 02:00:55;;;;;;;44.77;25.07;;;0.60;99.90;;;;;;5079002;28;20534;-54
2023/01/21 02:06:19;;;;;;;40.07;25.83;;;0.60;99.90;;;;;;5039507;28;20189;-52
2023/01/21 02:08:46;;;;;;;41.67;26.03;;;0.60;99.90;;;;;;5096932;28;20183;-55
2023/01/21 02:11:14;;;;;;;42.67;26.57;;;0.60;99.90;;;;;;5096333;28;20198;-55
2023/01/21 02:13:44;;;;;;;43.70;26.33;;;0.50;99.90;;;;;;5096295;28;20536;-51
2023/01/21 02:16:45;;;;;;;42.70;25.83;;;0.50;99.90;;;;;;5096655;28;20575;-54
2023/01/21 02:19:41;;;;;;;41.70;24.60;;;0.50;99.90;;;;;;5097148;28;20180;-54
2023/01/21 02:22:35;;;;;;;43.87;26.23;;;0.50;99.90;;;;;;5096833;28;20180;-52
2023/01/21 02:25:23;;;;;;;41.27;24.87;;;0.50;99.90;;;;;;5096542;28;20742;-52
2023/01/21 02:28:25;;;;;;;42.73;24.80;;;0.40;99.90;;;;;;5096563;28;20603;-52
2023/01/21 02:30:56;;;;;;;44.90;25.63;;;0.40;99.90;;;;;;5096383;28;20170;-51
2023/01/21 02:34:06;;;;;;;43.13;24.97;;;0.40;99.90;;;;;;5096182;28;20190;-51
2023/01/21 02:36:50;;;;;;;42.80;25.80;;;0.40;99.90;;;;;;5057264;28;20190;-54
2023/01/21 02:39:44;;;;;;;41.93;24.73;;;0.40;99.90;;;;;;5096251;28;20262;-54
2023/01/21 02:42:54;;;;;;;42.93;26.73;;;0.40;99.90;;;;;;5096025;28;20182;-53
2023/01/21 02:45:25;;;;;;;41.50;24.33;;;0.50;99.90;;;;;;5063985;28;20754;-54
2023/01/21 02:48:06;;;;;;;43.30;26.23;;;0.50;99.90;;;;;;5096033;28;20170;-51
2023/01/21 02:50:49;;;;;;;42.77;26.17;;;0.50;99.90;;;;;;5096124;28;20542;-54
2023/01/21 02:53:28;;;;;;;44.33;27.07;;;0.40;99.90;;;;;;5096067;28;20216;-53
2023/01/21 02:56:05;;;;;;;45.73;26.83;;;0.40;99.90;;;;;;5095938;28;20173;-53
2023/01/21 02:58:33;;;;;;;42.13;25.97;;;0.40;99.90;;;;;;5095857;28;20261;-53
2023/01/21 03:01:36;;;;;;;45.20;25.97;;;0.40;99.90;;;;;;5077810;28;20217;-55
2023/01/21 03:04:34;;;;;;;39.97;24.37;;;0.40;99.90;;;;;;5095930;28;20697;-53
2023/01/21 03:07:21;;;;;;;44.47;24.83;;;0.50;99.90;;;;;;5095850;28;20195;-54
2023/01/21 03:09:47;;;;;;;41.13;25.47;;;0.50;99.90;;;;;;5095275;28;20166;-53
2023/01/21 03:12:48;;;;;;;44.23;28.17;;;0.50;99.90;;;;;;5095432;28;20637;-55
2023/01/21 03:18:23;;;;;;;43.23;25.43;;;0.50;99.90;;;;;;5095347;28;20723;-54
2023/01/21 03:21:03;;;;;;;47.27;27.00;;;0.40;99.90;;;;;;5095006;28;20224;-52
2023/01/21 03:23:35;;;;;;;45.13;25.53;;;0.40;99.90;;;;;;5095393;28;20189;-52
2023/01/21 03:26:03;;;;;;;45.47;27.60;;;0.40;99.90;;;;;;5095603;28;20262;-55
2023/01/21 03:28:33;;;;;;;42.37;26.83;;;0.40;99.90;;;;;;5095182;28;20523;-54
2023/01/21 03:31:09;;;;;;;48.10;28.53;;;0.40;99.90;;;;;;5095238;28;20648;-52
2023/01/21 03:33:39;;;;;;;46.57;27.50;;;0.50;99.90;;;;;;5095093;28;20222;-53
2023/01/21 03:36:25;;;;;;;46.03;27.50;;;0.40;99.90;;;;;;5095371;28;20241;-53
2023/01/21 03:38:55;;;;;;;41.80;26.73;;;0.40;99.90;;;;;;5095285;28;20189;-54
2023/01/21 03:41:23;;;;;;;45.43;26.90;;;0.40;99.90;;;;;;5094936;28;20182;-54
2023/01/21 03:43:50;;;;;;;51.07;28.87;;;0.40;99.90;;;;;;5095099;28;20205;-53
2023/01/21 03:46:34;;;;;;;46.77;29.60;;;0.30;99.90;;;;;;5094790;28;20201;-52
2023/01/21 03:49:19;;;;;;;45.37;27.80;;;0.30;99.90;;;;;;5095240;28;20174;-53
2023/01/21 03:51:50;;;;;;;45.57;28.43;;;0.40;99.90;;;;;;5094858;28;20197;-52
2023/01/21 03:54:16;;;;;;;46.17;28.10;;;0.40;99.90;;;;;;5094839;28;20562;-54
2023/01/21 03:56:41;;;;;;;48.07;27.93;;;0.40;99.90;;;;;;5076938;28;20173;-53
2023/01/21 03:59:07;;;;;;;47.87;29.13;;;0.50;99.90;;;;;;5076947;28;20180;-54
2023/01/21 04:01:33;;;;;;;47.50;29.33;;;0.60;99.90;;;;;;5094356;28;20188;-54
2023/01/21 04:03:58;;;;;;;47.20;27.50;;;0.40;99.90;;;;;;5076846;28;20658;-53
2023/01/21 04:06:24;;;;;;;45.97;28.73;;;0.40;99.90;;;;;;5094510;28;20184;-53
2023/01/21 04:08:50;;;;;;;48.80;28.97;;;0.40;99.90;;;;;;5094630;28;20177;-53
2023/01/21 04:11:16;;;;;;;45.57;28.63;;;0.30;99.90;;;;;;5094248;28;20175;-54
2023/01/21 04:13:42;;;;;;;49.07;28.77;;;0.30;99.90;;;;;;5076518;28;20174;-53
2023/01/21 04:16:08;;;;;;;51.87;29.03;;;0.20;99.90;;;;;;5094474;28;20218;-52
2023/01/21 04:18:34;;;;;;;47.93;28.23;;;0.20;99.90;;;;;;5094374;28;20249;-53
2023/01/21 04:21:00;;;;;;;46.57;27.17;;;0.20;99.90;;;;;;5076169;28;20582;-53
2023/01/21 04:23:25;;;;;;;46.73;29.00;;;0.20;99.90;;;;;;5094244;28;20232;-53
2023/01/21 04:25:51;;;;;;;51.30;28.93;;;0.20;99.90;;;;;;5094020;28;20174;-53
2023/01/21 04:28:18;;;;;;;51.40;30.17;;;0.20;99.90;;;;;;5094379;28;20174;-54
2023/01/21 04:30:46;;;;;;;46.97;28.57;;;0.30;99.90;;;;;;5094119;28;20181;-53
2023/01/21 04:33:11;;;;;;;53.73;29.53;;;0.30;99.90;;;;;;5094084;28;20202;-55
2023/01/21 04:35:37;;;;;;;50.47;29.73;;;0.30;99.90;;;;;;5094077;28;20683;-51
2023/01/21 04:38:03;;;;;;;47.73;27.27;;;0.20;99.90;;;;;;5093909;28;20541;-54
2023/01/21 04:40:29;;;;;;;52.23;28.27;;;0.30;99.90;;;;;;5093864;28;20530;-53
2023/01/21 04:42:55;;;;;;;50.33;28.13;;;0.30;99.90;;;;;;5075740;28;20185;-54
2023/01/21 04:45:20;;;;;;;48.67;27.67;;;0.20;99.90;;;;;;5093846;28;20667;-52
2023/01/21 04:47:46;;;;;;;52.37;28.30;;;0.20;99.90;;;;;;5093857;28;20539;-53
2023/01/21 04:50:13;;;;;;;46.83;27.13;;;0.10;99.90;;;;;;5093770;28;20182;-53
2023/01/21 04:52:39;;;;;;;52.47;30.50;;;0.10;99.90;;;;;;5093587;28;20197;-50
2023/01/21 04:55:06;;;;;;;52.93;29.33;;;0.00;99.90;;;;;;5093566;28;20181;-52
2023/01/21 04:57:31;;;;;;;50.27;28.77;;;0.00;99.90;;;;;;5093797;28;20523;-53
2023/01/21 04:59:57;;;;;;;51.10;27.33;;;0.00;99.90;;;;;;5093545;28;20170;-54
2023/01/21 05:02:22;;;;;;;47.07;28.47;;;0.00;99.90;;;;;;5093668;28;20655;-54
2023/01/21 05:04:48;;;;;;;49.83;29.10;;;0.00;99.90;;;;;;5093452;28;20265;-54
2023/01/21 05:07:14;;;;;;;51.37;27.97;;;0.00;99.90;;;;;;5093474;28;20178;-54
2023/01/21 05:09:40;;;;;;;47.97;27.10;;;0.00;99.90;;;;;;5093621;28;20179;-53
2023/01/21 05:12:06;;;;;;;52.37;29.13;;;0.00;99.90;;;;;;5092617;28;20690;-53
2023/01/21 05:14:32;;;;;;;50.87;28.10;;;-0.10;99.90;;;;;;5093591;28;20182;-54
2023/01/21 05:16:58;;;;;;;51.47;28.83;;;0.00;99.90;;;;;;5093459;28;20254;-54
2023/01/21 05:19:24;;;;;;;50.23;27.63;;;0.00;99.90;;;;;;5093353;28;20189;-54
2023/01/21 05:21:49;;;;;;;50.53;27.73;;;0.00;99.90;;;;;;5093685;28;20643;-54
2023/01/21 05:24:15;;;;;;;47.53;27.47;;;0.00;99.90;;;;;;5093306;28;20179;-54
2023/01/21 05:26:42;;;;;;;47.10;27.27;;;0.00;99.90;;;;;;5093471;28;20174;-53
2023/01/21 05:29:07;;;;;;;50.57;28.37;;;0.00;99.90;;;;;;5093386;28;20184;-53
2023/01/21 05:31:33;;;;;;;52.03;27.73;;;0.00;99.90;;;;;;5093229;28;20214;-54
2023/01/21 05:33:59;;;;;;;46.83;26.87;;;0.00;99.90;;;;;;5075205;28;20550;-55
2023/01/21 05:36:25;;;;;;;49.07;28.10;;;0.00;99.90;;;;;;5093175;28;20631;-51
2023/01/21 05:38:51;;;;;;;50.13;28.20;;;0.00;99.90;;;;;;5093048;28;20174;-53
2023/01/21 05:41:17;;;;;;;50.63;28.50;;;0.10;99.90;;;;;;5093381;28;20175;-53
2023/01/21 05:43:42;;;;;;;50.60;28.97;;;0.10;99.90;;;;;;5093097;28;20524;-54
2023/01/21 05:46:08;;;;;;;54.27;29.67;;;0.00;99.90;;;;;;5093273;28;20177;-53
2023/01/21 05:48:34;;;;;;;52.07;28.70;;;0.00;99.90;;;;;;5093207;28;20201;-53
2023/01/21 05:51:00;;;;;;;48.83;28.13;;;0.00;99.90;;;;;;5093049;28;20182;-55
2023/01/21 05:53:26;;;;;;;53.13;29.93;;;0.00;99.90;;;;;;5093058;28;20215;-53
2023/01/21 05:55:53;;;;;;;49.23;27.80;;;0.00;99.90;;;;;;5093303;28;20169;-53
2023/01/21 05:58:19;;;;;;;53.17;29.63;;;0.00;99.90;;;;;;5093408;28;20654;-54
2023/01/21 06:00:46;;;;;;;52.97;29.80;;;0.00;99.90;;;;;;5092965;28;20231;-53
2023/01/21 06:03:12;;;;;;;53.17;29.50;;;-0.10;99.90;;;;;;5058395;28;20181;-54
2023/01/21 06:05:37;;;;;;;48.87;29.13;;;0.00;99.90;;;;;;5093231;28;20182;-51
2023/01/21 06:08:03;;;;;;;47.43;27.73;;;-0.10;99.90;;;;;;5092799;28;20166;-54
2023/01/21 06:10:29;;;;;;;52.80;28.43;;;-0.10;99.90;;;;;;5092936;28;20174;-52
2023/01/21 06:12:54;;;;;;;50.77;29.27;;;-0.20;99.90;;;;;;5093154;28;20536;-53
2023/01/21 06:15:20;;;;;;;50.43;28.50;;;-0.20;99.90;;;;;;5092982;28;20177;-55
2023/01/21 06:17:46;;;;;;;54.43;28.10;;;-0.20;99.90;;;;;;5092820;28;20188;-54
2023/01/21 06:20:12;;;;;;;51.00;27.87;;;-0.10;99.90;;;;;;5092699;28;20539;-52
2023/01/21 06:22:38;;;;;;;54.47;28.30;;;-0.20;99.90;;;;;;5092796;28;20238;-53
2023/01/21 06:25:04;;;;;;;47.13;26.17;;;-0.10;99.90;;;;;;5095890;28;20216;-53
2023/01/21 06:27:29;;;;;;;52.00;28.93;;;-0.10;99.90;;;;;;5096546;28;20278;-54
2023/01/21 06:29:55;;;;;;;54.37;28.93;;;-0.10;99.90;;;;;;5096498;28;20679;-53
2023/01/21 06:32:20;;;;;;;51.00;28.87;;;-0.10;99.90;;;;;;5096653;28;20641;-55
2023/01/21 06:34:46;;;;;;;51.00;27.67;;;-0.10;99.90;;;;;;5096309;28;20663;-55
2023/01/21 06:37:12;;;;;;;55.90;27.37;;;-0.20;99.90;;;;;;5096159;28;20181;-56
2023/01/21 06:39:37;;;;;;;53.90;28.57;;;-0.20;99.90;;;;;;5096174;28;20177;-54
2023/01/21 06:42:03;;;;;;;51.23;28.00;;;-0.30;99.90;;;;;;5096347;28;20697;-53
2023/01/21 06:44:29;;;;;;;48.33;28.43;;;-0.30;99.90;;;;;;5096071;28;20211;-51
2023/01/21 06:46:54;;;;;;;51.13;29.97;;;-0.30;99.90;;;;;;5096009;28;20538;-52
2023/01/21 06:49:20;;;;;;;49.17;28.40;;;-0.40;99.90;;;;;;5096081;28;20173;-55
2023/01/21 06:51:46;;;;;;;53.27;29.57;;;-0.40;99.90;;;;;;5078054;28;20198;-54
2023/01/21 06:54:11;;;;;;;50.07;28.00;;;-0.50;99.90;;;;;;5096043;28;20182;-55
2023/01/21 06:56:38;;;;;;;48.97;28.63;;;-0.40;99.90;;;;;;5095955;28;20585;-51
2023/01/21 06:59:04;;;;;;;48.70;27.57;;;-0.50;99.90;;;;;;5095972;28;20171;-54
2023/01/21 07:01:30;;;;;;;53.40;27.67;;;-0.50;99.90;;;;;;5095913;28;20194;-54
2023/01/21 07:03:56;;;;;;;53.20;27.03;;;-0.40;99.90;;;;;;5095652;28;20181;-54
2023/01/21 07:06:21;;;;;;;53.13;28.27;;;-0.30;99.90;;;;;;5095487;28;20178;-54
2023/01/21 07:08:47;;;;;;;47.93;26.50;;;-0.30;99.90;;;;;;5095728;28;20178;-55
2023/01/21 07:11:13;;;;;;;50.70;27.07;;;-0.30;99.90;;;;;;5095662;28;20186;-53
2023/01/21 07:13:39;;;;;;;47.03;26.90;;;-0.30;99.90;;;;;;5095753;28;20559;-52
2023/01/21 07:16:05;;;;;;;53.87;28.67;;;-0.20;99.90;;;;;;5094879;28;20240;-53
2023/01/21 07:18:31;;;;;;;50.43;28.30;;;-0.30;99.90;;;;;;5095359;28;20209;-54
2023/01/21 07:20:56;;;;;;;49.33;27.67;;;-0.30;99.90;;;;;;5095278;28;20208;-54
2023/01/21 07:23:22;;;;;;;54.27;28.53;;;-0.20;99.90;;;;;;5095446;28;20179;-52
2023/01/21 07:25:48;;;;;;;48.00;28.77;;;-0.30;99.90;;;;;;5095339;28;20181;-53
2023/01/21 07:28:14;;;;;;;49.50;28.07;;;-0.30;99.90;;;;;;5077149;28;20253;-54
2023/01/21 07:30:40;;;;;;;47.67;27.03;;;-0.30;99.90;;;;;;5095171;28;20212;-54
2023/01/21 07:33:07;;;;;;;51.33;27.47;;;-0.30;99.90;;;;;;5060288;28;20242;-54
2023/01/21 07:35:33;;;;;;;56.70;31.87;;;-0.30;99.90;;;;;;5094004;28;20193;-53
2023/01/21 07:37:59;;;;;;;50.70;27.23;;;-0.20;99.90;;;;;;5095123;28;20174;-52
2023/01/21 07:40:24;;;;;;;75.30;66.93;;;-0.30;99.90;;;;;;5093057;28;20186;-51
2023/01/21 07:42:54;;;;;;;46.77;27.70;;;-0.30;99.90;;;;;;5075197;28;20187;-55
2023/01/21 07:45:21;;;;;;;50.93;26.37;;;-0.30;99.90;;;;;;5094507;28;20186;-53
2023/01/21 07:47:47;;;;;;;46.90;26.97;;;-0.30;99.90;;;;;;5094566;28;20178;-55
2023/01/21 07:50:13;;;;;;;49.57;27.50;;;-0.30;99.90;;;;;;5076150;28;20189;-53
2023/01/21 07:52:38;;;;;;;50.77;26.33;;;-0.20;99.90;;;;;;5075958;28;20240;-53
2023/01/21 07:55:04;;;;;;;50.90;26.77;;;-0.30;99.90;;;;;;5075838;28;20265;-56
2023/01/21 07:57:30;;;;;;;48.63;26.30;;;-0.30;99.90;;;;;;5091920;28;20185;-54
2023/01/21 07:59:56;;;;;;;50.50;27.60;;;-0.30;99.90;;;;;;5094234;28;20190;-54
2023/01/21 08:02:22;;;;;;;55.23;29.13;;;-0.30;99.90;;;;;;5093215;28;20283;-53
2023/01/21 08:04:47;;;;;;;49.43;27.93;;;-0.30;99.90;;;;;;5092031;28;20174;-56
2023/01/21 08:07:13;;;;;;;50.17;28.57;;;-0.20;99.90;;;;;;5094818;28;20181;-53
2023/01/21 08:09:39;;;;;;;50.40;27.60;;;-0.20;99.90;;;;;;5094148;28;20174;-55
2023/01/21 08:12:06;;;;;;;48.10;26.73;;;-0.20;99.90;;;;;;5094195;28;20567;-54
2023/01/21 08:14:32;;;;;;;49.67;26.93;;;-0.20;99.90;;;;;;5094320;28;20269;-54
2023/01/21 08:16:59;;;;;;;50.20;28.40;;;-0.10;99.90;;;;;;5094277;28;20166;-54
2023/01/21 08:19:24;;;;;;;47.37;26.40;;;-0.20;99.90;;;;;;5094339;28;20177;-54
2023/01/21 08:21:51;;;;;;;49.07;27.77;;;-0.10;99.90;;;;;;5093845;28;20181;-54
2023/01/21 08:24:16;;;;;;;51.07;26.47;;;0.00;99.90;;;;;;5093986;28;20179;-55
2023/01/21 08:26:42;;;;;;;44.30;26.40;;;0.00;99.90;;;;;;5094092;28;20662;-53
2023/01/21 08:29:08;;;;;;;46.73;27.93;;;0.00;99.90;;;;;;5075463;28;20190;-54
2023/01/21 08:31:34;;;;;;;49.43;27.50;;;-0.10;99.90;;;;;;5075835;28;20206;-53
2023/01/21 08:33:59;;;;;;;47.00;29.17;;;-0.10;99.90;;;;;;5093733;28;20181;-54
2023/01/21 08:36:25;;;;;;;48.93;26.83;;;-0.10;99.90;;;;;;5093779;28;20177;-53
2023/01/21 08:38:53;;;;;;;46.37;26.53;;;-0.10;99.90;;;;;;5093930;28;20623;-53
2023/01/21 08:41:18;;;;;;;48.87;27.33;;;0.00;99.90;;;;;;5093943;28;20245;-52
2023/01/21 08:43:44;;;;;;;44.73;26.10;;;0.00;99.90;;;;;;5093781;28;20277;-51
2023/01/21 08:46:10;;;;;;;43.53;25.93;;;0.10;99.90;;;;;;5093727;28;20634;-52
2023/01/21 08:48:37;;;;;;;46.50;26.70;;;0.10;99.90;;;;;;5093634;28;20173;-51
2023/01/21 08:51:03;;;;;;;56.87;41.33;;;0.10;99.90;;;;;;5093672;28;20673;-53
2023/01/21 08:53:28;;;;;;;48.57;28.63;;;0.10;99.90;;;;;;5093785;28;20213;-53
2023/01/21 08:55:59;;;;;;;47.17;29.20;;;0.10;99.90;;;;;;5093733;28;20217;-53
2023/01/21 08:58:25;;;;;;;49.80;27.23;;;0.20;99.90;;;;;;5093584;28;20184;-54
2023/01/21 09:00:51;;;;;;;47.40;26.07;;;0.30;99.90;;;;;;5093547;28;20176;-50
2023/01/21 09:03:18;;;;;;;45.43;26.17;;;0.40;99.90;;;;;;5093512;28;20193;-55
2023/01/21 09:05:44;;;;;;;49.93;26.70;;;0.50;99.90;;;;;;5093634;28;20273;-54
2023/01/21 09:08:10;;;;;;;45.87;28.13;;;0.60;99.90;;;;;;5093542;28;20181;-53
2023/01/21 09:13:21;;;;;;;48.57;27.23;;;0.60;99.90;;;;;;5091964;28;20235;-51
2023/01/21 09:15:47;;;;;;;46.13;26.50;;;0.60;99.90;;;;;;5075609;28;20181;-52
2023/01/21 09:18:13;;;;;;;46.07;25.87;;;0.60;99.90;;;;;;5093208;28;20689;-53
2023/01/21 09:20:39;;;;;;;48.97;29.57;;;0.60;99.90;;;;;;5093683;28;20250;-52
2023/01/21 09:23:22;;;;;;;47.40;29.07;;;0.70;99.90;;;;;;5093580;28;20191;-54
2023/01/21 09:25:52;;;;;;;44.57;27.80;;;0.80;99.90;;;;;;5093538;28;20180;-50
2023/01/21 09:28:20;;;;;;;46.90;26.57;;;0.80;99.90;;;;;;5076079;28;20210;-51
2023/01/21 09:30:45;;;;;;;47.60;27.27;;;0.80;99.90;;;;;;5093524;28;20247;-53
2023/01/21 09:33:12;;;;;;;49.47;25.60;;;0.70;99.90;;;;;;5093410;28;20269;-55
2023/01/21 09:35:38;;;;;;;44.93;26.47;;;0.70;99.90;;;;;;5093449;28;20231;-53
2023/01/21 09:38:04;;;;;;;42.93;26.47;;;0.60;99.90;;;;;;5093483;28;20256;-54
2023/01/21 09:40:30;;;;;;;50.50;28.70;;;0.70;99.90;;;;;;5093395;28;20583;-52
2023/01/21 09:42:57;;;;;;;48.27;27.57;;;0.70;99.90;;;;;;5093066;28;20184;-53
2023/01/21 09:45:23;;;;;;;48.57;26.83;;;0.80;99.90;;;;;;5093524;28;20169;-54
2023/01/21 09:47:50;;;;;;;45.53;26.10;;;0.80;99.90;;;;;;5093367;28;20224;-54
2023/01/21 09:50:19;;;;;;;47.97;27.60;;;0.80;99.90;;;;;;5075304;28;20180;-53
2023/01/21 09:52:46;;;;;;;46.87;29.07;;;1.00;99.90;;;;;;5092656;28;20558;-53
2023/01/21 09:55:36;;;;;;;45.93;28.33;;;0.90;99.90;;;;;;5091634;28;20710;-54
2023/01/21 09:58:29;;;;;;;44.73;26.23;;;0.90;99.90;;;;;;5091729;28;20162;-53
2023/01/21 10:01:14;;;;;;;43.47;25.67;;;0.90;99.90;;;;;;5096706;28;20176;-51
2023/01/21 10:04:23;;;;;;;48.10;30.73;;;1.00;99.90;;;;;;5097074;28;20169;-49
2023/01/21 10:06:58;;;;;;;56.77;34.80;;;1.10;99.90;;;;;;5057909;28;20186;-57
2023/01/21 10:09:57;;;;;;;103.40;92.57;;;1.10;99.90;;;;;;5097120;28;20180;-53
2023/01/21 10:12:46;;;;;;;54.60;36.33;;;1.10;99.90;;;;;;5096712;28;20181;-53
2023/01/21 10:15:17;;;;;;;45.37;26.93;;;1.10;99.90;;;;;;5083460;28;20196;-53
2023/01/21 10:17:55;;;;;;;44.53;25.60;;;1.10;99.90;;;;;;5096777;28;20174;-53
2023/01/21 10:20:28;;;;;;;42.77;25.97;;;1.30;99.90;;;;;;5096482;28;20165;-52
2023/01/21 10:23:11;;;;;;;45.77;26.27;;;1.30;99.90;;;;;;5096279;28;20642;-53
2023/01/21 10:25:39;;;;;;;43.07;26.63;;;1.20;99.90;;;;;;5096660;28;20534;-53
2023/01/21 10:28:13;;;;;;;46.77;26.17;;;1.30;99.90;;;;;;5096510;28;20205;-53
2023/01/21 10:30:42;;;;;;;46.87;29.33;;;1.30;99.90;;;;;;5096473;28;20164;-54
2023/01/21 10:33:17;;;;;;;41.87;27.50;;;1.40;99.90;;;;;;5096323;28;20197;-54
2023/01/21 10:35:49;;;;;;;43.13;27.20;;;1.50;99.90;;;;;;5096676;28;20521;-54
2023/01/21 10:38:24;;;;;;;43.73;27.43;;;1.60;99.90;;;;;;5096364;28;20574;-54
2023/01/21 10:41:03;;;;;;;40.57;24.97;;;1.60;99.90;;;;;;5096411;28;20620;-53
2023/01/21 10:43:42;;;;;;;44.87;26.40;;;1.60;99.90;;;;;;5096407;28;20269;-54
2023/01/21 10:46:29;;;;;;;40.53;26.07;;;1.60;99.90;;;;;;5096391;28;20199;-54
2023/01/21 10:49:09;;;;;;;44.23;27.87;;;1.70;99.90;;;;;;5096097;28;20567;-53
2023/01/21 10:51:47;;;;;;;40.37;25.87;;;1.90;99.90;;;;;;5096657;28;20627;-53
2023/01/21 10:54:34;;;;;;;45.73;26.70;;;1.90;99.90;;;;;;5096201;28;20207;-54
2023/01/21 10:57:26;;;;;;;43.77;25.70;;;2.10;99.90;;;;;;5096186;28;20161;-54
2023/01/21 10:59:55;;;;;;;39.73;25.13;;;2.00;99.90;;;;;;5096140;28;20210;-54
2023/01/21 11:02:30;;;;;;;40.20;25.80;;;2.00;99.90;;;;;;5096078;28;20647;-54
2023/01/21 11:05:01;;;;;;;41.10;24.93;;;2.10;99.90;;;;;;5095717;28;20173;-51
2023/01/21 11:07:31;;;;;;;38.03;24.00;;;2.10;99.90;;;;;;5077864;28;20173;-52
2023/01/21 11:10:00;;;;;;;37.60;24.80;;;2.00;99.90;;;;;;5095010;28;20168;-54
2023/01/21 11:12:26;;;;;;;40.03;24.60;;;2.10;99.90;;;;;;5095409;28;20201;-53
2023/01/21 11:15:01;;;;;;;36.77;22.70;;;2.20;99.90;;;;;;5095738;28;20743;-53
2023/01/21 11:17:33;;;;;;;35.83;22.83;;;2.40;99.90;;;;;;5095949;28;20548;-54
2023/01/21 11:20:00;;;;;;;33.47;22.13;;;2.40;99.90;;;;;;5095711;28;20176;-54
2023/01/21 11:22:31;;;;;;;32.03;21.83;;;2.30;99.90;;;;;;5095716;28;20215;-52
2023/01/21 11:24:57;;;;;;;32.73;21.77;;;2.30;99.90;;;;;;5095698;28;20157;-54
2023/01/21 11:27:36;;;;;;;36.60;22.50;;;2.40;99.90;;;;;;5095480;28;20170;-54
2023/01/21 11:30:03;;;;;;;38.00;23.73;;;2.40;99.90;;;;;;5095737;28;20180;-54
2023/01/21 11:32:30;;;;;;;33.97;21.97;;;2.50;99.90;;;;;;5095752;28;20220;-52
2023/01/21 11:35:08;;;;;;;56.03;31.43;;;2.50;99.90;;;;;;5095411;28;20192;-53
2023/01/21 11:37:36;;;;;;;29.23;19.50;;;2.50;99.90;;;;;;5095551;28;20172;-50
2023/01/21 11:40:24;;;;;;;34.60;21.93;;;2.50;99.90;;;;;;5095332;28;20300;-54
2023/01/21 11:42:52;;;;;;;34.63;21.87;;;2.60;99.90;;;;;;5095361;28;20174;-53
2023/01/21 11:45:35;;;;;;;36.30;22.40;;;2.50;99.90;;;;;;5095336;28;20641;-53
2023/01/21 11:48:12;;;;;;;30.20;21.20;;;2.60;99.90;;;;;;5095131;28;20186;-51
2023/01/21 11:50:38;;;;;;;32.63;20.57;;;2.60;99.90;;;;;;5095052;28;20158;-52
2023/01/21 11:53:06;;;;;;;28.27;19.50;;;2.70;99.90;;;;;;5095014;28;20205;-52
2023/01/21 11:55:52;;;;;;;29.10;19.07;;;2.70;99.90;;;;;;5077205;28;20527;-53
2023/01/21 11:58:31;;;;;;;27.33;18.50;;;2.70;99.90;;;;;;5094944;28;20194;-52
2023/01/21 12:01:00;;;;;;;28.83;18.30;;;2.60;99.90;;;;;;5094938;28;20645;-51
2023/01/21 12:03:34;;;;;;;28.43;19.20;;;2.70;99.90;;;;;;5094669;28;20181;-53
2023/01/21 12:05:59;;;;;;;29.00;19.50;;;2.70;99.90;;;;;;5094913;28;20286;-54
2023/01/21 12:08:32;;;;;;;33.03;20.60;;;2.90;99.90;;;;;;5094692;28;20203;-50
2023/01/21 12:11:03;;;;;;;32.73;21.93;;;2.90;99.90;;;;;;5094691;28;20163;-52
2023/01/21 12:13:34;;;;;;;32.05;21.80;;;3.00;99.90;;;;;;5094671;28;20227;-53
2023/01/21 12:16:36;;;;;;;29.27;19.20;;;2.80;99.90;;;;;;5094349;28;20543;-53
2023/01/21 12:19:24;;;;;;;30.53;20.23;;;2.80;99.90;;;;;;5094836;28;20165;-52
2023/01/21 12:22:08;;;;;;;31.40;20.13;;;3.00;99.90;;;;;;5094135;28;20187;-52
2023/01/21 12:25:00;;;;;;;31.50;20.80;;;3.10;99.90;;;;;;5090599;28;20271;-52
2023/01/21 12:27:34;;;;;;;28.30;18.87;;;3.10;99.90;;;;;;5039922;28;20214;-52
2023/01/21 12:30:24;;;;;;;29.50;20.17;;;3.00;99.90;;;;;;5094258;28;20665;-50
2023/01/21 12:32:55;;;;;;;33.30;22.13;;;2.90;99.90;;;;;;5094104;28;20326;-51
2023/01/21 12:35:26;;;;;;;31.47;21.43;;;3.00;99.90;;;;;;5094016;28;20161;-51
2023/01/21 12:37:59;;;;;;;31.17;22.40;;;3.00;99.90;;;;;;5093874;28;20166;-50
2023/01/21 12:40:33;;;;;;;31.90;21.23;;;3.00;99.90;;;;;;5094052;28;20614;-53
2023/01/21 12:43:15;;;;;;;32.27;20.90;;;3.00;99.90;;;;;;5093947;28;20169;-53
2023/01/21 12:45:50;;;;;;;30.17;21.43;;;3.00;99.90;;;;;;5093953;28;20157;-54
2023/01/21 12:48:34;;;;;;;36.57;22.67;;;3.20;99.90;;;;;;5093847;28;20173;-54
2023/01/21 12:51:12;;;;;;;32.10;21.80;;;3.10;99.90;;;;;;5093884;28;20172;-54
2023/01/21 12:53:45;;;;;;;33.33;22.90;;;3.10;99.90;;;;;;5093824;28;20539;-54
2023/01/21 12:56:16;;;;;;;35.67;24.00;;;3.20;99.90;;;;;;5076849;28;20185;-53
2023/01/21 12:58:54;;;;;;;33.67;23.57;;;3.10;99.90;;;;;;5073523;28;20531;-52
2023/01/21 13:01:42;;;;;;;43.17;30.07;;;2.90;99.90;;;;;;5073151;28;20619;-53